createdAt,value
2022-10-20T00:00:06.462Z,96111.78
2022-10-20T00:03:08.389Z,96119.56
2022-10-20T00:06:12.665Z,96126.59
2022-10-20T00:09:14.767Z,96114.31
2022-10-20T00:12:18.048Z,96113.53
2022-10-20T00:15:19.983Z,96109.47
2022-10-20T00:18:23.282Z,96100.81
2022-10-20T00:21:27.822Z,96103.50
2022-10-20T00:24:29.684Z,96105.13
2022-10-20T00:27:33.041Z,96093.97
2022-10-20T00:30:35.658Z,96091.59
2022-10-20T00:33:38.010Z,96074.88
2022-10-20T00:36:40.370Z,96080.75
2022-10-20T00:39:42.219Z,96083.75
2022-10-20T00:42:46.325Z,96078.03
2022-10-20T00:45:53.970Z,96075.09
2022-10-20T00:49:00.808Z,96066.69
2022-10-20T00:52:03.068Z,96067.38
2022-10-20T00:55:07.377Z,96064.22
2022-10-20T00:58:10.668Z,96060.38
2022-10-20T01:01:14.354Z,96061.22
2022-10-20T01:04:17.227Z,96053.09
2022-10-20T01:07:19.568Z,96053.44
2022-10-20T01:10:23.330Z,96038.28
2022-10-20T01:13:35.614Z,96031.69
2022-10-20T01:16:47.631Z,96044.66
2022-10-20T01:20:18.761Z,96035.00
2022-10-20T01:23:48.288Z,96030.63
2022-10-20T01:27:20.719Z,96026.22
2022-10-20T01:30:24.087Z,96016.63
2022-10-20T01:33:36.886Z,96011.22
2022-10-20T01:36:45.825Z,96015.53
2022-10-20T01:39:53.755Z,96011.41
2022-10-20T01:42:59.816Z,96021.84
2022-10-20T01:46:05.634Z,96023.94
2022-10-20T01:49:08.790Z,96019.31
2022-10-20T01:52:10.965Z,96017.19
2022-10-20T01:55:14.459Z,96012.56
2022-10-20T01:58:29.952Z,96004.16
2022-10-20T02:01:49.633Z,96011.84
2022-10-20T02:05:09.135Z,96008.00
2022-10-20T02:08:15.587Z,95998.81
2022-10-20T02:11:25.646Z,96007.53
2022-10-20T02:14:28.517Z,96002.97
2022-10-20T02:17:35.696Z,95999.44
2022-10-20T02:20:38.033Z,95989.56
2022-10-20T02:23:45.023Z,95985.41
2022-10-20T02:26:47.484Z,95983.69
2022-10-20T02:29:55.738Z,95982.88
2022-10-20T02:32:59.001Z,95974.69
2022-10-20T02:36:05.307Z,95992.75
2022-10-20T02:39:08.214Z,95980.56
2022-10-20T02:42:10.127Z,95974.09
2022-10-20T02:45:12.064Z,95959.16
2022-10-20T02:48:15.416Z,95973.41
2022-10-20T02:51:17.304Z,95961.28
2022-10-20T02:54:19.543Z,95957.56
2022-10-20T02:57:21.551Z,95951.03
2022-10-20T03:00:23.565Z,95950.75
2022-10-20T03:03:26.982Z,95940.19
2022-10-20T03:06:28.892Z,95948.59
2022-10-20T03:09:30.805Z,95960.50
2022-10-20T03:12:33.097Z,95955.78
2022-10-20T03:15:35.053Z,95956.00
2022-10-20T03:18:38.728Z,95954.47
2022-10-20T03:21:40.714Z,95952.78
2022-10-20T03:24:42.949Z,95965.91
2022-10-20T03:27:44.852Z,95954.75
2022-10-20T03:30:46.758Z,95953.84
2022-10-20T03:33:50.248Z,95945.53
2022-10-20T03:36:52.284Z,95948.06
2022-10-20T03:39:54.650Z,95949.16
2022-10-20T03:42:56.526Z,95949.91
2022-10-20T03:46:02.766Z,95948.75
2022-10-20T03:49:07.763Z,95948.91
2022-10-20T03:52:09.741Z,95951.75
2022-10-20T03:55:11.683Z,95942.13
2022-10-20T03:58:13.576Z,95940.34
2022-10-20T04:01:17.596Z,95939.03
2022-10-20T04:04:20.931Z,95939.50
2022-10-20T04:07:23.023Z,95928.59
2022-10-20T04:10:25.882Z,95935.00
2022-10-20T04:13:27.801Z,95936.94
2022-10-20T04:16:29.769Z,95911.69
2022-10-20T04:19:33.096Z,95909.84
2022-10-20T04:22:35.555Z,95901.03
2022-10-20T04:25:40.135Z,95916.59
2022-10-20T04:28:42.448Z,95903.22
2022-10-20T04:31:48.176Z,95895.69
2022-10-20T04:34:52.572Z,95895.03
2022-10-20T04:37:54.739Z,95894.25
2022-10-20T04:40:59.166Z,95896.91
2022-10-20T04:44:04.061Z,95901.28
2022-10-20T04:47:06.323Z,95898.66
2022-10-20T04:50:10.104Z,95890.94
2022-10-20T04:53:12.047Z,95894.56
2022-10-20T04:56:18.329Z,95891.53
2022-10-20T04:59:20.318Z,95895.88
2022-10-20T05:02:22.787Z,95881.44
2022-10-20T05:05:26.412Z,95889.06
2022-10-20T05:08:28.461Z,95885.97
2022-10-20T05:11:31.776Z,95884.25
2022-10-20T05:14:33.744Z,95884.78
2022-10-20T05:17:35.706Z,95876.66
2022-10-20T05:20:41.241Z,95879.94
2022-10-20T05:23:56.071Z,95877.19
2022-10-20T05:26:57.992Z,95881.13
2022-10-20T05:30:01.131Z,95883.19
2022-10-20T05:33:03.780Z,95882.94
2022-10-20T05:36:12.050Z,95881.72
2022-10-20T05:39:14.224Z,95871.97
2022-10-20T05:42:16.121Z,95872.34
2022-10-20T05:45:18.045Z,95886.78
2022-10-20T05:48:20.002Z,95880.75
2022-10-20T05:51:26.559Z,95887.75
2022-10-20T05:54:28.538Z,95887.06
2022-10-20T05:57:30.635Z,95897.34
2022-10-20T06:00:32.946Z,95900.06
2022-10-20T06:03:35.248Z,95906.47
2022-10-20T06:06:38.534Z,95903.22
2022-10-20T06:09:41.253Z,95905.56
2022-10-20T06:12:43.168Z,95894.81
2022-10-20T06:15:45.456Z,95902.69
2022-10-20T06:18:47.663Z,95905.38
2022-10-20T06:21:51.757Z,95929.84
2022-10-20T06:24:53.683Z,95923.72
2022-10-20T06:27:55.607Z,95914.50
2022-10-20T06:30:57.484Z,95918.53
2022-10-20T06:34:00.098Z,95918.84
2022-10-20T06:37:03.399Z,95915.81
2022-10-20T06:40:06.410Z,95925.50
2022-10-20T06:43:08.759Z,95931.03
2022-10-20T06:46:14.173Z,95914.00
2022-10-20T06:49:16.111Z,95926.53
2022-10-20T06:52:19.343Z,95920.75
2022-10-20T06:55:21.238Z,95918.47
2022-10-20T06:58:24.454Z,95915.00
2022-10-20T07:01:28.377Z,95918.47
2022-10-20T07:04:30.406Z,95914.19
2022-10-20T07:07:33.802Z,95915.03
2022-10-20T07:10:36.199Z,95907.78
2022-10-20T07:13:39.090Z,95915.13
2022-10-20T07:16:42.656Z,95910.06
2022-10-20T07:19:44.659Z,95905.91
2022-10-20T07:22:48.365Z,95894.75
2022-10-20T07:25:50.430Z,95898.97
2022-10-20T07:28:55.992Z,95910.44
2022-10-20T07:31:59.985Z,95898.44
2022-10-20T07:35:04.729Z,95902.28
2022-10-20T07:38:08.176Z,95904.66
2022-10-20T07:41:10.676Z,95911.38
2022-10-20T07:44:12.836Z,95907.06
2022-10-20T07:47:14.806Z,95905.16
2022-10-20T07:50:16.748Z,95897.66
2022-10-20T07:53:20.083Z,95884.91
2022-10-20T07:56:23.098Z,95889.97
2022-10-20T07:59:25.137Z,95886.03
2022-10-20T08:02:27.152Z,95887.03
2022-10-20T08:05:29.131Z,95887.44
2022-10-20T08:08:32.975Z,95884.75
2022-10-20T08:11:35.356Z,95886.69
2022-10-20T08:14:37.348Z,95878.66
2022-10-20T08:17:39.393Z,95875.16
2022-10-20T08:20:49.227Z,95859.25
2022-10-20T08:23:52.553Z,95866.06
2022-10-20T08:26:54.551Z,95869.13
2022-10-20T08:30:06.308Z,95876.91
2022-10-20T08:33:18.357Z,95875.59
2022-10-20T08:36:21.278Z,95874.28
2022-10-20T08:39:24.831Z,95877.19
2022-10-20T08:42:27.045Z,95873.13
2022-10-20T08:45:28.944Z,95871.53
2022-10-20T08:48:34.047Z,95866.91
2022-10-20T08:51:37.774Z,95864.06
2022-10-20T08:54:41.235Z,95858.75
2022-10-20T08:57:43.430Z,95854.88
2022-10-20T09:00:46.811Z,95862.03
2022-10-20T09:03:54.646Z,95854.81
2022-10-20T09:07:00.198Z,95853.78
2022-10-20T09:10:13.820Z,95851.63
2022-10-20T09:13:20.705Z,95846.38
2022-10-20T09:16:40.929Z,95845.84
2022-10-20T09:19:48.513Z,95830.16
2022-10-20T09:22:50.639Z,95820.97
2022-10-20T09:25:53.954Z,95836.00
2022-10-20T09:29:13.087Z,95838.44
2022-10-20T09:32:45.561Z,95827.03
2022-10-20T09:35:47.296Z,95834.03
2022-10-20T09:38:51.200Z,95824.00
2022-10-20T09:42:04.017Z,95820.13
2022-10-20T09:45:16.484Z,95815.69
2022-10-20T09:48:23.841Z,95813.09
2022-10-20T09:51:28.159Z,95827.38
2022-10-20T09:54:30.806Z,95818.94
2022-10-20T09:57:34.646Z,95822.78
2022-10-20T10:00:44.338Z,95819.34
2022-10-20T10:03:47.130Z,95822.31
2022-10-20T10:06:49.033Z,95815.25
2022-10-20T10:09:56.126Z,95811.47
2022-10-20T10:13:01.752Z,95809.22
2022-10-20T10:16:07.021Z,95795.41
2022-10-20T10:19:18.106Z,95790.78
2022-10-20T10:22:20.306Z,95797.75
2022-10-20T10:25:27.217Z,95796.16
2022-10-20T10:28:36.589Z,95795.50
2022-10-20T10:31:45.817Z,95793.56
2022-10-20T10:35:09.423Z,95782.34
2022-10-20T10:38:13.788Z,95775.78
2022-10-20T10:41:24.062Z,95775.47
2022-10-20T10:44:42.534Z,95779.03
2022-10-20T10:48:18.120Z,95773.19
2022-10-20T10:51:36.305Z,95751.19
2022-10-20T10:54:49.433Z,95753.94
2022-10-20T10:58:02.284Z,95750.09
2022-10-20T11:01:19.967Z,95743.53
2022-10-20T11:04:40.335Z,95748.59
2022-10-20T11:07:46.129Z,95752.44
2022-10-20T11:10:54.869Z,95750.53
2022-10-20T11:14:10.944Z,95746.28
2022-10-20T11:17:29.892Z,95748.97
2022-10-20T11:20:40.624Z,95744.78
2022-10-20T11:23:59.711Z,95751.75
2022-10-20T11:27:04.859Z,95739.34
2022-10-20T11:30:14.915Z,95734.72
2022-10-20T11:33:22.812Z,95726.16
2022-10-20T11:36:31.528Z,95725.41
2022-10-20T11:39:41.297Z,95717.66
2022-10-20T11:42:48.525Z,95698.28
2022-10-20T11:45:53.878Z,95704.00
2022-10-20T11:49:00.354Z,95695.84
2022-10-20T11:52:22.503Z,95676.06
2022-10-20T11:55:35.787Z,95685.75
2022-10-20T11:59:01.543Z,95681.44
2022-10-20T12:02:46.866Z,95693.56
2022-10-20T12:06:27.216Z,95683.06
2022-10-20T12:09:49.578Z,95685.41
2022-10-20T12:12:58.121Z,95688.13
2022-10-20T12:16:00.389Z,95681.50
2022-10-20T12:19:07.237Z,95681.81
2022-10-20T12:22:43.248Z,95681.09
2022-10-20T12:25:45.264Z,95676.47
2022-10-20T12:28:47.159Z,95671.81
2022-10-20T12:32:24.227Z,95665.50
2022-10-20T12:36:01.633Z,95659.00
2022-10-20T12:39:20.258Z,95658.09
2022-10-20T12:42:27.817Z,95655.41
2022-10-20T12:45:38.636Z,95653.06
2022-10-20T12:48:46.063Z,95653.09
2022-10-20T12:51:51.554Z,95639.88
2022-10-20T12:55:02.673Z,95638.19
2022-10-20T12:58:12.802Z,95630.41
2022-10-20T13:01:15.150Z,95636.09
2022-10-20T13:04:50.877Z,95641.28
2022-10-20T13:08:00.886Z,95633.88
2022-10-20T13:11:48.503Z,95618.75
2022-10-20T13:14:55.858Z,95618.81
2022-10-20T13:18:00.589Z,95617.22
2022-10-20T13:21:18.795Z,95608.66
2022-10-20T13:24:28.207Z,95622.69
2022-10-20T13:27:30.200Z,95618.47
2022-10-20T13:30:35.738Z,95613.00
2022-10-20T13:37:29.261Z,95617.16
2022-10-20T13:40:44.339Z,95618.69
2022-10-20T13:43:57.510Z,95610.16
2022-10-20T13:47:10.505Z,95603.38
2022-10-20T13:50:16.027Z,95615.75
2022-10-20T13:53:22.267Z,95603.00
2022-10-20T13:56:34.854Z,95606.63
2022-10-20T13:59:39.593Z,95609.72
2022-10-20T14:02:53.607Z,95606.03
2022-10-20T14:05:55.616Z,95613.31
2022-10-20T14:08:59.530Z,95608.69
2022-10-20T14:12:04.338Z,95608.78
2022-10-20T14:15:08.312Z,95613.88
2022-10-20T14:18:22.711Z,95604.25
2022-10-20T14:21:24.726Z,95608.47
2022-10-20T14:24:31.351Z,95603.06
2022-10-20T14:27:36.695Z,95603.03
2022-10-20T14:30:41.111Z,95599.53
2022-10-20T14:33:46.991Z,95595.28
2022-10-20T14:36:50.551Z,95596.84
2022-10-20T14:39:52.519Z,95605.78
2022-10-20T14:42:59.820Z,95608.09
2022-10-20T14:46:03.535Z,95602.63
2022-10-20T14:49:15.465Z,95594.06
2022-10-20T14:52:22.643Z,95594.88
2022-10-20T14:55:31.875Z,95585.91
2022-10-20T14:58:37.919Z,95592.16
2022-10-20T15:01:40.066Z,95585.69
2022-10-20T15:04:44.702Z,95595.03
2022-10-20T15:07:46.764Z,95595.44
2022-10-20T15:10:49.171Z,95591.50
2022-10-20T15:13:52.345Z,95595.38
2022-10-20T15:16:54.450Z,95592.22
2022-10-20T15:19:58.213Z,95595.75
2022-10-20T15:23:02.182Z,95583.06
2022-10-20T15:26:06.789Z,95580.47
2022-10-20T15:29:11.099Z,95581.19
2022-10-20T15:32:13.066Z,95581.97
2022-10-20T15:35:18.528Z,95580.50
2022-10-20T15:38:21.200Z,95586.31
2022-10-20T15:41:25.652Z,95588.66
2022-10-20T15:44:27.658Z,95588.66
2022-10-20T15:47:29.711Z,95589.03
2022-10-20T15:50:33.624Z,95589.88
2022-10-20T15:53:36.129Z,95586.03
2022-10-20T15:56:38.121Z,95588.72
2022-10-20T15:59:40.142Z,95586.41
2022-10-20T16:02:42.480Z,95592.25
2022-10-20T16:05:46.596Z,95591.84
2022-10-20T16:08:50.114Z,95596.91
2022-10-20T16:11:52.052Z,95597.28
2022-10-20T16:14:54.466Z,95605.06
2022-10-20T16:17:57.077Z,95607.34
2022-10-20T16:21:01.296Z,95612.00
2022-10-20T16:24:03.489Z,95603.91
2022-10-20T16:27:05.735Z,95603.13
2022-10-20T16:30:08.926Z,95606.59
2022-10-20T16:33:11.297Z,95601.19
2022-10-20T16:36:16.463Z,95599.25
2022-10-20T16:39:18.525Z,95592.31
2022-10-20T16:42:21.110Z,95607.38
2022-10-20T16:48:32.842Z,95605.06
2022-10-20T16:51:38.253Z,95603.91
2022-10-20T16:57:44.167Z,95601.97
2022-10-20T17:00:56.228Z,95595.00
2022-10-20T17:03:59.060Z,95599.28
2022-10-20T17:07:03.994Z,95594.25
2022-10-20T17:10:07.479Z,95597.72
2022-10-20T17:13:09.967Z,95604.69
2022-10-20T17:16:15.122Z,95591.91
2022-10-20T17:19:19.162Z,95593.88
2022-10-20T17:22:26.121Z,95599.66
2022-10-20T17:25:31.399Z,95603.13
2022-10-20T17:28:36.253Z,95596.94
2022-10-20T17:31:39.284Z,95588.81
2022-10-20T17:34:42.006Z,95576.84
2022-10-20T17:37:46.544Z,95576.84
2022-10-20T17:40:49.635Z,95580.31
2022-10-20T17:43:53.861Z,95581.84
2022-10-20T17:46:57.624Z,95566.41
2022-10-20T17:50:00.792Z,95554.41
2022-10-20T17:53:05.489Z,95560.59
2022-10-20T17:56:11.271Z,95562.16
2022-10-20T17:59:14.308Z,95552.88
2022-10-20T18:02:17.093Z,95549.41
2022-10-20T18:05:20.244Z,95550.56
2022-10-20T18:08:26.407Z,95555.59
2022-10-20T18:11:31.830Z,95552.50
2022-10-20T18:14:34.998Z,95554.81
2022-10-20T18:17:38.368Z,95547.44
2022-10-20T18:20:41.854Z,95537.81
2022-10-20T18:23:47.386Z,95542.81
2022-10-20T18:26:54.686Z,95530.84
2022-10-20T18:29:57.815Z,95532.78
2022-10-20T18:33:01.273Z,95529.69
2022-10-20T18:36:05.129Z,95523.50
2022-10-20T18:39:10.460Z,95522.34
2022-10-20T18:42:14.181Z,95521.97
2022-10-20T18:45:17.211Z,95521.97
2022-10-20T18:48:20.141Z,95516.56
2022-10-20T18:51:23.343Z,95519.25
2022-10-20T18:54:27.681Z,95513.84
2022-10-20T18:57:31.880Z,95509.59
2022-10-20T19:00:35.975Z,95501.84
2022-10-20T19:03:42.095Z,95491.03
2022-10-20T19:06:46.830Z,95484.84
2022-10-20T19:09:54.800Z,95483.31
2022-10-20T19:12:59.520Z,95492.94
2022-10-20T19:16:07.710Z,95491.41
2022-10-20T19:19:13.001Z,95496.03
2022-10-20T19:22:16.012Z,95488.31
2022-10-20T19:25:20.667Z,95494.09
2022-10-20T19:28:24.145Z,95493.28
2022-10-20T19:31:29.942Z,95487.84
2022-10-20T19:34:35.903Z,95469.38
2022-10-20T19:37:38.962Z,95478.63
2022-10-20T19:40:43.910Z,95472.84
2022-10-20T19:43:47.410Z,95470.13
2022-10-20T19:46:52.625Z,95476.31
2022-10-20T19:49:55.273Z,95483.22
2022-10-20T19:52:59.348Z,95465.06
2022-10-20T19:56:04.550Z,95470.91
2022-10-20T19:59:08.139Z,95470.13
2022-10-20T20:02:11.994Z,95470.84
2022-10-20T20:05:14.956Z,95477.84
2022-10-20T20:08:17.629Z,95480.53
2022-10-20T20:11:21.999Z,95465.50
2022-10-20T20:14:24.410Z,95460.09
2022-10-20T20:17:27.616Z,95457.72
2022-10-20T20:20:31.677Z,95463.13
2022-10-20T20:23:54.452Z,95456.91
2022-10-20T20:27:00.162Z,95448.44
2022-10-20T20:30:02.581Z,95463.41
2022-10-20T20:33:05.547Z,95470.75
2022-10-20T20:36:08.782Z,95461.91
2022-10-20T20:39:10.918Z,95461.16
2022-10-20T20:42:14.740Z,95459.59
2022-10-20T20:45:16.729Z,95451.09
2022-10-20T20:48:18.865Z,95451.09
2022-10-20T20:51:21.000Z,95442.97
2022-10-20T20:54:23.153Z,95441.81
2022-10-20T20:57:28.731Z,95446.47
2022-10-20T21:00:30.671Z,95449.94
2022-10-20T21:03:33.655Z,95445.72
2022-10-20T21:07:00.648Z,95460.00
2022-10-20T21:10:00.464Z,95451.13
2022-10-20T21:13:03.840Z,95448.41
2022-10-20T21:16:10.839Z,95445.34
2022-10-20T21:19:12.926Z,95450.34
2022-10-20T21:22:14.973Z,95436.84
2022-10-20T21:25:17.200Z,95439.53
2022-10-20T21:28:20.547Z,95441.44
2022-10-20T21:31:24.198Z,95430.63
2022-10-20T21:34:27.280Z,95433.69
2022-10-20T21:37:29.268Z,95439.03
2022-10-20T21:40:31.907Z,95433.28
2022-10-20T21:43:37.371Z,95427.88
2022-10-20T21:46:40.602Z,95421.31
2022-10-20T21:49:42.547Z,95427.47
2022-10-20T21:52:44.502Z,95423.19
2022-10-20T21:55:46.502Z,95419.34
2022-10-20T21:58:50.294Z,95417.44
2022-10-20T22:01:54.187Z,95416.63
2022-10-20T22:04:56.100Z,95415.09
2022-10-20T22:07:58.044Z,95413.13
2022-10-20T22:11:03.241Z,95423.22
2022-10-20T22:14:06.781Z,95418.59
2022-10-20T22:17:09.033Z,95428.97
2022-10-20T22:20:11.391Z,95432.81
2022-10-20T22:23:13.539Z,95428.19
2022-10-20T22:26:15.523Z,95425.13
2022-10-20T22:29:19.845Z,95416.66
2022-10-20T22:32:21.885Z,95418.63
2022-10-20T22:35:23.894Z,95412.88
2022-10-20T22:38:25.888Z,95420.59
2022-10-20T22:41:27.926Z,95427.16
2022-10-20T22:44:31.199Z,95431.38
2022-10-20T22:47:33.154Z,95426.00
2022-10-20T22:50:35.236Z,95428.28
2022-10-20T22:53:37.277Z,95434.47
2022-10-20T22:56:39.210Z,95434.47
2022-10-20T22:59:42.722Z,95437.91
2022-10-20T23:02:45.081Z,95434.41
2022-10-20T23:05:47.010Z,95437.53
2022-10-20T23:08:50.727Z,95442.53
2022-10-20T23:11:52.783Z,95436.75
2022-10-20T23:14:56.436Z,95444.44
2022-10-20T23:17:58.605Z,95434.81
2022-10-20T23:21:00.683Z,95439.81
2022-10-20T23:24:02.895Z,95455.66
2022-10-20T23:27:04.929Z,95463.34
2022-10-20T23:30:09.698Z,95518.13
2022-10-20T23:33:11.623Z,95552.41
2022-10-20T23:36:15.139Z,95537.28
2022-10-20T23:39:17.287Z,95519.50
2022-10-20T23:42:19.251Z,95504.84
2022-10-20T23:45:22.594Z,95516.41
2022-10-20T23:48:25.346Z,95533.41
2022-10-20T23:51:27.691Z,95527.19
2022-10-20T23:54:29.707Z,95534.16
2022-10-20T23:57:32.009Z,95540.72
